Jolon, CA (93928)

6:33 PM PDT on August 23, 2016 (GMT -0700)
Davis Canyon / Argyle | | Change Station

Elev 1179 ft 35.99 °N, 121.13 °W | Updated 22 seconds ago

Clear
Clear
87.8 °F
Feels Like 84 °F
N
2.7
Wind Variable Wind from NW
Gusts 4.9 mph

Today
High -- | Low -- °F
--% Chance of Precip.
Yesterday
High -- | Low -- °F
Precip. -- in
Pressure 29.96 in
Visibility 10.0 miles
Clouds Clear
Heat Index 84 °F
Dew Point 36 °F
Humidity 16%
Rainfall 0.00 in
Snow Depth Not available.
6:29 AM 7:43 PM
Waning Gibbous, 62% visible
METAR KPRB 240053Z AUTO 21008KT 10SM CLR 29/09 A2998 RMK AO2 SLP146 T02940089 TSNO
Pressure 29.96 in
Visibility 10.0 miles
Clouds Clear
Heat Index 84 °F
Dew Point 36 °F
Humidity 16%
Rainfall 0.00 in
Snow Depth Not available.
6:29 AM 7:43 PM
Waning Gibbous, 62% visible
METAR KPRB 240053Z AUTO 21008KT 10SM CLR 29/09 A2998 RMK AO2 SLP146 T02940089 TSNO

10-Day Weather Forecast

Almanac

Astronomy

Aug. 23, 2016 Rise Set
Actual Time
Civil Twilight
Nautical Twilight
Astronomical Twilight
Moon
Length of Visible Light
Length of Day
Tomorrow will be .
, % of the Moon is Illuminated

Today's Extremes

State Highs State Lows

Community

WunderPhotos

Upload Photos

1,934,517 photos uploaded!

WunderBlog® & News

Nearby

Air Quality

  Air Quality AQ Index Pollutant
Not available.

Snow Depth

Station Depth Elevation

Earthquake Activity

City Distance Mag. Time & Date
Minimum magnitude displayed is 2.5.

Coastal Water Temperatures

Place Temperature

Stations

Nearby Weather Stations

Station Location Temp. Windchill Dew Point Humidity Wind Precip. Elev Updated Type
                   

Watches & Warnings

There are currently no watches in effect.